SKW3564 KDTW-KSYR
Flight info
| Callsign | SKW3564 |
|---|---|
| Flight time | 1h 0m |
| Altitude | 33000 |
| Route | HHOWE4 LNCON DCT JHW DCT |
| Aircraft | CRJ7/M-SDFGIRWY/S |
Departure
| Time | 2026-04-22 22:55 |
|---|---|
| Airport | Detroit Metropolitan Wayne County Airport (KDTW) |
Arrival
| Time | 2026-04-22 23:56 |
|---|---|
| Airport | Syracuse Hancock International Airport (KSYR) |
| Time | Latitude | Longitude | Altitude | Speed | Heading |
|---|---|---|---|---|---|
| 2026-04-22 22:06 | 42.20894 | -83.36145 | 647 ft | 0 kts | 299° |
| 2026-04-22 22:33 | 42.20895 | -83.36145 | 647 ft | 0 kts | 299° |
| 2026-04-22 22:41 | 42.20889 | -83.36133 | 647 ft | 4 kts | 302° |
| 2026-04-22 22:41 | 42.20872 | -83.36105 | 648 ft | 4 kts | 320° |
| 2026-04-22 22:41 | 42.20850 | -83.36091 | 651 ft | 4 kts | 0° |
| 2026-04-22 22:41 | 42.20839 | -83.36096 | 647 ft | 1 kts | 29° |
| 2026-04-22 22:44 | 42.20847 | -83.36089 | 651 ft | 3 kts | 29° |
| 2026-04-22 22:44 | 42.20874 | -83.36069 | 648 ft | 6 kts | 29° |
| 2026-04-22 22:44 | 42.20921 | -83.36035 | 647 ft | 9 kts | 29° |
| 2026-04-22 22:45 | 42.20984 | -83.35987 | 648 ft | 12 kts | 29° |
| 2026-04-22 22:45 | 42.21067 | -83.35926 | 647 ft | 15 kts | 28° |
| 2026-04-22 22:45 | 42.21165 | -83.35855 | 647 ft | 17 kts | 28° |
| 2026-04-22 22:45 | 42.21276 | -83.35773 | 647 ft | 20 kts | 28° |
| 2026-04-22 22:46 | 42.21403 | -83.35680 | 647 ft | 22 kts | 28° |
| 2026-04-22 22:46 | 42.21515 | -83.35595 | 647 ft | 16 kts | 41° |
| 2026-04-22 22:46 | 42.21546 | -83.35455 | 647 ft | 16 kts | 91° |
| 2026-04-22 22:46 | 42.21547 | -83.35333 | 647 ft | 14 kts | 89° |
| 2026-04-22 22:47 | 42.21549 | -83.35214 | 647 ft | 11 kts | 89° |
| 2026-04-22 22:47 | 42.21555 | -83.35099 | 647 ft | 13 kts | 75° |
| 2026-04-22 22:47 | 42.21614 | -83.35015 | 649 ft | 11 kts | 43° |
| 2026-04-22 22:47 | 42.21672 | -83.34939 | 650 ft | 12 kts | 44° |
| 2026-04-22 22:48 | 42.21731 | -83.34861 | 651 ft | 13 kts | 44° |
| 2026-04-22 22:48 | 42.21799 | -83.34772 | 650 ft | 15 kts | 44° |
| 2026-04-22 22:48 | 42.21833 | -83.34637 | 648 ft | 17 kts | 89° |
| 2026-04-22 22:48 | 42.21854 | -83.34511 | 650 ft | 12 kts | 47° |
| 2026-04-22 22:49 | 42.21926 | -83.34452 | 648 ft | 7 kts | 28° |
| 2026-04-22 22:49 | 42.21966 | -83.34423 | 648 ft | 7 kts | 29° |
| 2026-04-22 22:49 | 42.22013 | -83.34387 | 647 ft | 8 kts | 29° |
| 2026-04-22 22:49 | 42.22068 | -83.34345 | 647 ft | 10 kts | 29° |
| 2026-04-22 22:50 | 42.22131 | -83.34298 | 647 ft | 11 kts | 29° |
| 2026-04-22 22:50 | 42.22201 | -83.34245 | 647 ft | 12 kts | 29° |
| 2026-04-22 22:50 | 42.22278 | -83.34189 | 649 ft | 13 kts | 28° |
| 2026-04-22 22:50 | 42.22358 | -83.34129 | 647 ft | 14 kts | 29° |
| 2026-04-22 22:51 | 42.22445 | -83.34065 | 647 ft | 15 kts | 29° |
| 2026-04-22 22:51 | 42.22536 | -83.33998 | 648 ft | 15 kts | 28° |
| 2026-04-22 22:51 | 42.22631 | -83.33928 | 648 ft | 16 kts | 28° |
| 2026-04-22 22:51 | 42.22731 | -83.33853 | 647 ft | 17 kts | 28° |
| 2026-04-22 22:52 | 42.22835 | -83.33777 | 647 ft | 15 kts | 29° |
| 2026-04-22 22:52 | 42.22857 | -83.33733 | 647 ft | 0 kts | 103° |
| 2026-04-22 22:53 | 42.22856 | -83.33730 | 647 ft | 1 kts | 103° |
| 2026-04-22 22:53 | 42.22855 | -83.33723 | 647 ft | 1 kts | 108° |
| 2026-04-22 22:53 | 42.22848 | -83.33700 | 647 ft | 4 kts | 114° |
| 2026-04-22 22:54 | 42.22831 | -83.33657 | 647 ft | 6 kts | 124° |
| 2026-04-22 22:54 | 42.22794 | -83.33641 | 648 ft | 6 kts | 207° |
| 2026-04-22 22:54 | 42.22779 | -83.33653 | 649 ft | 10 kts | 208° |
| 2026-04-22 22:54 | 42.22525 | -83.33840 | 651 ft | 76 kts | 209° |
| 2026-04-22 22:55 | 42.21884 | -83.34314 | 648 ft | 132 kts | 208° |
| 2026-04-22 22:55 | 42.20958 | -83.34966 | 820 ft | 160 kts | 207° |
| 2026-04-22 22:55 | 42.18843 | -83.36310 | 2039 ft | 177 kts | 195° |
| 2026-04-22 22:56 | 42.17625 | -83.36654 | 2613 ft | 178 kts | 210° |
| 2026-04-22 22:56 | 42.16472 | -83.37211 | 3330 ft | 184 kts | 188° |
| 2026-04-22 22:56 | 42.15258 | -83.36492 | 3897 ft | 208 kts | 140° |
| 2026-04-22 22:56 | 42.14297 | -83.35031 | 4493 ft | 210 kts | 142° |
| 2026-04-22 22:57 | 42.13267 | -83.33604 | 5043 ft | 220 kts | 130° |
| 2026-04-22 22:57 | 42.12783 | -83.31520 | 5337 ft | 246 kts | 99° |
| 2026-04-22 22:57 | 42.12642 | -83.29189 | 6032 ft | 251 kts | 94° |
| 2026-04-22 22:57 | 42.12608 | -83.26794 | 6580 ft | 265 kts | 90° |
| 2026-04-22 22:58 | 42.12602 | -83.24247 | 6813 ft | 280 kts | 93° |
| 2026-04-22 22:58 | 42.12449 | -83.21534 | 6936 ft | 301 kts | 98° |
| 2026-04-22 22:58 | 42.12131 | -83.18664 | 6984 ft | 323 kts | 101° |
| 2026-04-22 22:58 | 42.11755 | -83.15576 | 7017 ft | 343 kts | 101° |
| 2026-04-22 22:59 | 42.11656 | -83.12320 | 7023 ft | 356 kts | 79° |
| 2026-04-22 22:59 | 42.12502 | -83.09162 | 7034 ft | 369 kts | 61° |
| 2026-04-22 22:59 | 42.13681 | -83.05978 | 7495 ft | 383 kts | 61° |
| 2026-04-22 22:59 | 42.14796 | -83.02743 | 8671 ft | 380 kts | 64° |
| 2026-04-22 23:00 | 42.15774 | -82.99403 | 9479 ft | 387 kts | 67° |
| 2026-04-22 23:00 | 42.16671 | -82.95991 | 10280 ft | 392 kts | 68° |
| 2026-04-22 23:00 | 42.17570 | -82.92544 | 11351 ft | 383 kts | 67° |
| 2026-04-22 23:00 | 42.18446 | -82.89189 | 12460 ft | 378 kts | 67° |
| 2026-04-22 23:01 | 42.19325 | -82.85829 | 13221 ft | 382 kts | 67° |
| 2026-04-22 23:01 | 42.20224 | -82.82448 | 13950 ft | 385 kts | 66° |
| 2026-04-22 23:01 | 42.21139 | -82.79040 | 14647 ft | 387 kts | 66° |
| 2026-04-22 23:01 | 42.22061 | -82.75613 | 15332 ft | 389 kts | 66° |
| 2026-04-22 23:02 | 42.22983 | -82.72175 | 15991 ft | 391 kts | 66° |
| 2026-04-22 23:02 | 42.23897 | -82.68753 | 16651 ft | 393 kts | 66° |
| 2026-04-22 23:02 | 42.24818 | -82.65274 | 17308 ft | 395 kts | 68° |
| 2026-04-22 23:02 | 42.25338 | -82.61599 | 17926 ft | 402 kts | 83° |
| 2026-04-22 23:03 | 42.25432 | -82.57730 | 18003 ft | 422 kts | 88° |
| 2026-04-22 23:03 | 42.25437 | -82.53690 | 18057 ft | 439 kts | 88° |
| 2026-04-22 23:03 | 42.25495 | -82.49545 | 18520 ft | 443 kts | 86° |
| 2026-04-22 23:03 | 42.25614 | -82.45381 | 18986 ft | 446 kts | 86° |
| 2026-04-22 23:04 | 42.25662 | -82.41180 | 19438 ft | 449 kts | 88° |
| 2026-04-22 23:04 | 42.25608 | -82.36936 | 19873 ft | 452 kts | 89° |
| 2026-04-22 23:04 | 42.25529 | -82.32712 | 20310 ft | 455 kts | 89° |
| 2026-04-22 23:04 | 42.25444 | -82.28417 | 20733 ft | 458 kts | 89° |
| 2026-04-22 23:05 | 42.25384 | -82.24114 | 21158 ft | 461 kts | 88° |
| 2026-04-22 23:05 | 42.25333 | -82.19770 | 21555 ft | 463 kts | 89° |
| 2026-04-22 23:05 | 42.25284 | -82.15395 | 21945 ft | 466 kts | 89° |
| 2026-04-22 23:05 | 42.25229 | -82.10998 | 22324 ft | 469 kts | 89° |
| 2026-04-22 23:06 | 42.25174 | -82.06647 | 22692 ft | 472 kts | 89° |
| 2026-04-22 23:06 | 42.25117 | -82.02186 | 23061 ft | 474 kts | 89° |
| 2026-04-22 23:06 | 42.25059 | -81.97699 | 23405 ft | 477 kts | 89° |
| 2026-04-22 23:06 | 42.24996 | -81.93254 | 23728 ft | 480 kts | 89° |
| 2026-04-22 23:07 | 42.24932 | -81.88746 | 24026 ft | 481 kts | 89° |
| 2026-04-22 23:07 | 42.24871 | -81.84217 | 24318 ft | 483 kts | 89° |
| 2026-04-22 23:07 | 42.24801 | -81.79673 | 24597 ft | 485 kts | 89° |
| 2026-04-22 23:07 | 42.24731 | -81.75105 | 24873 ft | 487 kts | 89° |
| 2026-04-22 23:08 | 42.24659 | -81.70526 | 25142 ft | 489 kts | 89° |
| 2026-04-22 23:08 | 42.24585 | -81.65937 | 25406 ft | 491 kts | 89° |
| 2026-04-22 23:08 | 42.24508 | -81.61300 | 25662 ft | 493 kts | 89° |
| 2026-04-22 23:08 | 42.24430 | -81.56660 | 25900 ft | 495 kts | 89° |
| 2026-04-22 23:09 | 42.24351 | -81.52005 | 26141 ft | 496 kts | 89° |
| 2026-04-22 23:09 | 42.24286 | -81.47337 | 26367 ft | 498 kts | 88° |
| 2026-04-22 23:09 | 42.24231 | -81.42707 | 26582 ft | 500 kts | 89° |
| 2026-04-22 23:09 | 42.24164 | -81.37998 | 26795 ft | 502 kts | 89° |
| 2026-04-22 23:10 | 42.24101 | -81.33267 | 27003 ft | 503 kts | 88° |
| 2026-04-22 23:10 | 42.24033 | -81.28528 | 27213 ft | 505 kts | 89° |
| 2026-04-22 23:10 | 42.23960 | -81.23783 | 27403 ft | 506 kts | 89° |
| 2026-04-22 23:10 | 42.23889 | -81.19090 | 27595 ft | 508 kts | 89° |
| 2026-04-22 23:11 | 42.23815 | -81.14332 | 27778 ft | 509 kts | 89° |
| 2026-04-22 23:11 | 42.23737 | -81.09552 | 28128 ft | 505 kts | 89° |
| 2026-04-22 23:11 | 42.23662 | -81.04832 | 28591 ft | 501 kts | 89° |
| 2026-04-22 23:11 | 42.23582 | -81.00136 | 28780 ft | 502 kts | 89° |
| 2026-04-22 23:12 | 42.23500 | -80.95409 | 28962 ft | 503 kts | 89° |
| 2026-04-22 23:12 | 42.23419 | -80.90680 | 29133 ft | 504 kts | 89° |
| 2026-04-22 23:12 | 42.23333 | -80.85958 | 29295 ft | 506 kts | 89° |
| 2026-04-22 23:12 | 42.23245 | -80.81191 | 29459 ft | 507 kts | 89° |
| 2026-04-22 23:13 | 42.23155 | -80.76423 | 29617 ft | 508 kts | 89° |
| 2026-04-22 23:13 | 42.23064 | -80.71709 | 29759 ft | 509 kts | 89° |
| 2026-04-22 23:13 | 42.22972 | -80.66915 | 29904 ft | 510 kts | 89° |
| 2026-04-22 23:13 | 42.22871 | -80.62130 | 30038 ft | 511 kts | 89° |
| 2026-04-22 23:14 | 42.22772 | -80.57308 | 30163 ft | 512 kts | 89° |
| 2026-04-22 23:14 | 42.22672 | -80.52517 | 30371 ft | 510 kts | 89° |
| 2026-04-22 23:14 | 42.22570 | -80.47795 | 30938 ft | 500 kts | 89° |
| 2026-04-22 23:14 | 42.22476 | -80.43461 | 31395 ft | 493 kts | 89° |
| 2026-04-22 23:15 | 42.22376 | -80.38850 | 31591 ft | 492 kts | 89° |
| 2026-04-22 23:15 | 42.22268 | -80.34126 | 31691 ft | 494 kts | 89° |
| 2026-04-22 23:15 | 42.22164 | -80.29542 | 31856 ft | 494 kts | 89° |
| 2026-04-22 23:15 | 42.22055 | -80.24911 | 32029 ft | 494 kts | 89° |
| 2026-04-22 23:16 | 42.21948 | -80.20290 | 32214 ft | 493 kts | 89° |
| 2026-04-22 23:16 | 42.21838 | -80.15677 | 32389 ft | 492 kts | 89° |
| 2026-04-22 23:16 | 42.21721 | -80.11043 | 32567 ft | 492 kts | 89° |
| 2026-04-22 23:16 | 42.21605 | -80.06425 | 32725 ft | 491 kts | 89° |
| 2026-04-22 23:17 | 42.21487 | -80.01827 | 32886 ft | 491 kts | 89° |
| 2026-04-22 23:17 | 42.21370 | -79.97274 | 32960 ft | 493 kts | 89° |
| 2026-04-22 23:17 | 42.21127 | -79.87979 | 33011 ft | 492 kts | 89° |
| 2026-04-22 23:18 | 42.20878 | -79.78786 | 33030 ft | 491 kts | 89° |
| 2026-04-22 23:18 | 42.20619 | -79.69630 | 33035 ft | 489 kts | 89° |
| 2026-04-22 23:19 | 42.20355 | -79.60472 | 33044 ft | 488 kts | 89° |
| 2026-04-22 23:19 | 42.20086 | -79.51322 | 33039 ft | 487 kts | 89° |
| 2026-04-22 23:20 | 42.19807 | -79.42202 | 33042 ft | 486 kts | 89° |
| 2026-04-22 23:20 | 42.19511 | -79.33092 | 33041 ft | 485 kts | 89° |
| 2026-04-22 23:21 | 42.19190 | -79.24045 | 33043 ft | 484 kts | 89° |
| 2026-04-22 23:21 | 42.18863 | -79.14994 | 33039 ft | 484 kts | 89° |
| 2026-04-22 23:22 | 42.18532 | -79.05946 | 33036 ft | 483 kts | 89° |
| 2026-04-22 23:22 | 42.18588 | -78.96988 | 33036 ft | 478 kts | 82° |
| 2026-04-22 23:23 | 42.19040 | -78.88062 | 33032 ft | 477 kts | 81° |
| 2026-04-22 23:23 | 42.19538 | -78.79122 | 33026 ft | 477 kts | 81° |
| 2026-04-22 23:24 | 42.20038 | -78.70198 | 33019 ft | 477 kts | 81° |
| 2026-04-22 23:24 | 42.20359 | -78.61376 | 33006 ft | 477 kts | 80° |
| 2026-04-22 23:25 | 42.20497 | -78.52460 | 33020 ft | 476 kts | 80° |
| 2026-04-22 23:25 | 42.20604 | -78.43557 | 33031 ft | 475 kts | 80° |
| 2026-04-22 23:26 | 42.20699 | -78.34629 | 33036 ft | 475 kts | 80° |
| 2026-04-22 23:26 | 42.20784 | -78.25713 | 33038 ft | 474 kts | 80° |
| 2026-04-22 23:27 | 42.20868 | -78.16815 | 33034 ft | 474 kts | 80° |
| 2026-04-22 23:27 | 42.20953 | -78.07997 | 33036 ft | 473 kts | 80° |
| 2026-04-22 23:28 | 42.21036 | -77.99110 | 33042 ft | 473 kts | 80° |
| 2026-04-22 23:28 | 42.21113 | -77.90239 | 33014 ft | 474 kts | 80° |
| 2026-04-22 23:29 | 42.21156 | -77.85800 | 32201 ft | 472 kts | 80° |
| 2026-04-22 23:29 | 42.21210 | -77.81354 | 31306 ft | 471 kts | 80° |
| 2026-04-22 23:29 | 42.21267 | -77.76965 | 30833 ft | 461 kts | 80° |
| 2026-04-22 23:29 | 42.21316 | -77.72698 | 30455 ft | 450 kts | 80° |
| 2026-04-22 23:30 | 42.21387 | -77.69934 | 30210 ft | 440 kts | 77° |
| 2026-04-22 23:30 | 42.21678 | -77.64553 | 29661 ft | 426 kts | 76° |
| 2026-04-22 23:30 | 42.21937 | -77.60599 | 29088 ft | 420 kts | 75° |
| 2026-04-22 23:30 | 42.22210 | -77.56691 | 28519 ft | 415 kts | 75° |
| 2026-04-22 23:31 | 42.22497 | -77.52823 | 27946 ft | 412 kts | 75° |
| 2026-04-22 23:31 | 42.22693 | -77.50285 | 27598 ft | 409 kts | 75° |
| 2026-04-22 23:31 | 42.22999 | -77.46493 | 27070 ft | 405 kts | 75° |
| 2026-04-22 23:31 | 42.23313 | -77.42740 | 26535 ft | 402 kts | 75° |
| 2026-04-22 23:32 | 42.23638 | -77.38984 | 26015 ft | 399 kts | 75° |
| 2026-04-22 23:32 | 42.23973 | -77.35285 | 25532 ft | 396 kts | 75° |
| 2026-04-22 23:32 | 42.24317 | -77.31608 | 25066 ft | 393 kts | 75° |
| 2026-04-22 23:32 | 42.24666 | -77.28003 | 24601 ft | 390 kts | 75° |
| 2026-04-22 23:33 | 42.25028 | -77.24391 | 24156 ft | 387 kts | 75° |
| 2026-04-22 23:33 | 42.25402 | -77.20800 | 23703 ft | 384 kts | 75° |
| 2026-04-22 23:33 | 42.25779 | -77.17247 | 23242 ft | 381 kts | 75° |
| 2026-04-22 23:33 | 42.26159 | -77.13727 | 22696 ft | 380 kts | 75° |
| 2026-04-22 23:34 | 42.26539 | -77.10205 | 22181 ft | 378 kts | 75° |
| 2026-04-22 23:34 | 42.26920 | -77.06699 | 21726 ft | 376 kts | 75° |
| 2026-04-22 23:34 | 42.27298 | -77.03205 | 21273 ft | 374 kts | 75° |
| 2026-04-22 23:34 | 42.27676 | -76.99742 | 20823 ft | 372 kts | 75° |
| 2026-04-22 23:35 | 42.28051 | -76.96293 | 20394 ft | 371 kts | 75° |
| 2026-04-22 23:35 | 42.28417 | -76.92909 | 19996 ft | 369 kts | 74° |
| 2026-04-22 23:35 | 42.28791 | -76.89461 | 19579 ft | 367 kts | 75° |
| 2026-04-22 23:35 | 42.29166 | -76.86041 | 19161 ft | 366 kts | 75° |
| 2026-04-22 23:36 | 42.29538 | -76.82648 | 18771 ft | 365 kts | 75° |
| 2026-04-22 23:36 | 42.29908 | -76.79278 | 18396 ft | 363 kts | 75° |
| 2026-04-22 23:36 | 42.30283 | -76.75888 | 18003 ft | 361 kts | 75° |
| 2026-04-22 23:36 | 42.30653 | -76.72573 | 17596 ft | 359 kts | 75° |
| 2026-04-22 23:37 | 42.31071 | -76.69264 | 17217 ft | 355 kts | 71° |
| 2026-04-22 23:37 | 42.31596 | -76.66020 | 16843 ft | 352 kts | 70° |
| 2026-04-22 23:37 | 42.32150 | -76.62815 | 16475 ft | 349 kts | 69° |
| 2026-04-22 23:37 | 42.32898 | -76.59721 | 16093 ft | 342 kts | 62° |
| 2026-04-22 23:38 | 42.33783 | -76.56751 | 15728 ft | 339 kts | 60° |
| 2026-04-22 23:38 | 42.34698 | -76.53828 | 15369 ft | 337 kts | 60° |
| 2026-04-22 23:38 | 42.35625 | -76.50930 | 15032 ft | 335 kts | 59° |
| 2026-04-22 23:38 | 42.36550 | -76.48083 | 14683 ft | 333 kts | 59° |
| 2026-04-22 23:39 | 42.37504 | -76.45188 | 14325 ft | 332 kts | 59° |
| 2026-04-22 23:39 | 42.38436 | -76.42388 | 13996 ft | 330 kts | 59° |
| 2026-04-22 23:39 | 42.39383 | -76.39572 | 13654 ft | 328 kts | 59° |
| 2026-04-22 23:39 | 42.40336 | -76.36770 | 13259 ft | 327 kts | 59° |
| 2026-04-22 23:40 | 42.41295 | -76.33980 | 12893 ft | 325 kts | 59° |
| 2026-04-22 23:40 | 42.42255 | -76.31217 | 12596 ft | 321 kts | 59° |
| 2026-04-22 23:40 | 42.43191 | -76.28538 | 12579 ft | 308 kts | 59° |
| 2026-04-22 23:40 | 42.44081 | -76.25983 | 12531 ft | 298 kts | 59° |
| 2026-04-22 23:41 | 42.44961 | -76.23452 | 12301 ft | 297 kts | 59° |
| 2026-04-22 23:41 | 42.45843 | -76.20929 | 12041 ft | 296 kts | 59° |
| 2026-04-22 23:41 | 42.46731 | -76.18424 | 11788 ft | 295 kts | 59° |
| 2026-04-22 23:41 | 42.47631 | -76.15933 | 11531 ft | 293 kts | 57° |
| 2026-04-22 23:42 | 42.48931 | -76.13936 | 11237 ft | 278 kts | 25° |
| 2026-04-22 23:42 | 42.50710 | -76.13243 | 10955 ft | 260 kts | 354° |
| 2026-04-22 23:42 | 42.52525 | -76.13299 | 10655 ft | 261 kts | 353° |
| 2026-04-22 23:42 | 42.54330 | -76.13220 | 10370 ft | 265 kts | 360° |
| 2026-04-22 23:43 | 42.56165 | -76.12807 | 10077 ft | 268 kts | 7° |
| 2026-04-22 23:43 | 42.57980 | -76.12197 | 9780 ft | 270 kts | 9° |
| 2026-04-22 23:43 | 42.59780 | -76.11547 | 9685 ft | 262 kts | 9° |
| 2026-04-22 23:43 | 42.61519 | -76.10924 | 9683 ft | 251 kts | 8° |
| 2026-04-22 23:44 | 42.63192 | -76.10380 | 9582 ft | 245 kts | 6° |
| 2026-04-22 23:44 | 42.64843 | -76.09871 | 9402 ft | 242 kts | 6° |
| 2026-04-22 23:44 | 42.66489 | -76.09358 | 9211 ft | 242 kts | 6° |
| 2026-04-22 23:44 | 42.68099 | -76.08859 | 9013 ft | 240 kts | 6° |
| 2026-04-22 23:45 | 42.69723 | -76.08365 | 8783 ft | 239 kts | 6° |
| 2026-04-22 23:45 | 42.71342 | -76.07869 | 8575 ft | 237 kts | 7° |
| 2026-04-22 23:45 | 42.72947 | -76.07365 | 8365 ft | 237 kts | 7° |
| 2026-04-22 23:45 | 42.74548 | -76.06858 | 8182 ft | 236 kts | 7° |
| 2026-04-22 23:46 | 42.76134 | -76.06349 | 7980 ft | 235 kts | 7° |
| 2026-04-22 23:46 | 42.77726 | -76.05846 | 7783 ft | 234 kts | 7° |
| 2026-04-22 23:46 | 42.79306 | -76.05346 | 7592 ft | 232 kts | 7° |
| 2026-04-22 23:46 | 42.80882 | -76.04843 | 7295 ft | 232 kts | 7° |
| 2026-04-22 23:47 | 42.82454 | -76.04336 | 6975 ft | 232 kts | 9° |
| 2026-04-22 23:47 | 42.83907 | -76.03309 | 6641 ft | 239 kts | 30° |
| 2026-04-22 23:47 | 42.85245 | -76.02020 | 6279 ft | 239 kts | 30° |
| 2026-04-22 23:47 | 42.86594 | -76.00715 | 5848 ft | 240 kts | 30° |
| 2026-04-22 23:48 | 42.87975 | -75.99378 | 5412 ft | 241 kts | 31° |
| 2026-04-22 23:48 | 42.89348 | -75.98049 | 4946 ft | 242 kts | 31° |
| 2026-04-22 23:48 | 42.90733 | -75.96731 | 4476 ft | 244 kts | 31° |
| 2026-04-22 23:48 | 42.92129 | -75.95418 | 3993 ft | 244 kts | 31° |
| 2026-04-22 23:49 | 42.93531 | -75.94115 | 3508 ft | 243 kts | 31° |
| 2026-04-22 23:49 | 42.94922 | -75.92829 | 3127 ft | 239 kts | 31° |
| 2026-04-22 23:49 | 42.96278 | -75.91579 | 2879 ft | 228 kts | 31° |
| 2026-04-22 23:49 | 42.97534 | -75.90411 | 2771 ft | 213 kts | 31° |
| 2026-04-22 23:50 | 42.98723 | -75.89300 | 2725 ft | 204 kts | 31° |
| 2026-04-22 23:50 | 42.99899 | -75.88203 | 2705 ft | 206 kts | 31° |
| 2026-04-22 23:50 | 43.01085 | -75.87090 | 2681 ft | 207 kts | 31° |
| 2026-04-22 23:50 | 43.02267 | -75.85968 | 2655 ft | 207 kts | 30° |
| 2026-04-22 23:51 | 43.03533 | -75.85093 | 2636 ft | 201 kts | 4° |
| 2026-04-22 23:51 | 43.04928 | -75.85004 | 2648 ft | 202 kts | 359° |
| 2026-04-22 23:51 | 43.06274 | -75.85369 | 2642 ft | 199 kts | 326° |
| 2026-04-22 23:51 | 43.07406 | -75.86460 | 2639 ft | 200 kts | 322° |
| 2026-04-22 23:52 | 43.08512 | -75.87563 | 2669 ft | 191 kts | 321° |
| 2026-04-22 23:52 | 43.09354 | -75.88895 | 2512 ft | 188 kts | 296° |
| 2026-04-22 23:52 | 43.09932 | -75.90523 | 2155 ft | 196 kts | 295° |
| 2026-04-22 23:52 | 43.10520 | -75.92224 | 1861 ft | 199 kts | 295° |
| 2026-04-22 23:53 | 43.11094 | -75.93935 | 1718 ft | 194 kts | 294° |
| 2026-04-22 23:53 | 43.11336 | -75.95701 | 1644 ft | 188 kts | 266° |
| 2026-04-22 23:53 | 43.11281 | -75.97467 | 1634 ft | 182 kts | 272° |
| 2026-04-22 23:53 | 43.11273 | -75.99080 | 1627 ft | 156 kts | 270° |
| 2026-04-22 23:54 | 43.11234 | -76.00459 | 1588 ft | 134 kts | 269° |
| 2026-04-22 23:54 | 43.11184 | -76.01678 | 1553 ft | 130 kts | 270° |
| 2026-04-22 23:54 | 43.11142 | -76.02992 | 1344 ft | 142 kts | 269° |
| 2026-04-22 23:54 | 43.11110 | -76.04334 | 1151 ft | 143 kts | 268° |
| 2026-04-22 23:55 | 43.11042 | -76.05698 | 960 ft | 141 kts | 267° |
| 2026-04-22 23:55 | 43.10995 | -76.07026 | 784 ft | 142 kts | 270° |
| 2026-04-22 23:55 | 43.10957 | -76.08366 | 623 ft | 140 kts | 269° |
| 2026-04-22 23:55 | 43.10913 | -76.09684 | 430 ft | 135 kts | 269° |
| 2026-04-22 23:56 | 43.10882 | -76.10734 | 423 ft | 82 kts | 268° |
| 2026-04-22 23:56 | 43.10874 | -76.11255 | 419 ft | 16 kts | 277° |
| 2026-04-22 23:56 | 43.10933 | -76.11362 | 420 ft | 17 kts | 326° |
| 2026-04-22 23:56 | 43.10990 | -76.11306 | 419 ft | 12 kts | 85° |
| 2026-04-22 23:57 | 43.10992 | -76.11155 | 423 ft | 19 kts | 86° |
| 2026-04-22 23:57 | 43.11007 | -76.10870 | 421 ft | 29 kts | 87° |
| 2026-04-22 23:57 | 43.11067 | -76.10816 | 419 ft | 14 kts | 352° |
| 2026-04-22 23:57 | 43.11136 | -76.10824 | 419 ft | 12 kts | 355° |
| 2026-04-22 23:58 | 43.11231 | -76.10828 | 417 ft | 15 kts | 4° |
| 2026-04-22 23:58 | 43.11335 | -76.10815 | 419 ft | 3 kts | 4° |
| 2026-04-22 23:58 | 43.11369 | -76.10824 | 418 ft | 8 kts | 330° |
| 2026-04-22 23:58 | 43.11399 | -76.10888 | 415 ft | 6 kts | 270° |
| 2026-04-22 23:59 | 43.11399 | -76.10890 | 415 ft | 0 kts | 269° |
| 2026-04-22 23:59 | 43.11399 | -76.10923 | 422 ft | 7 kts | 271° |
| 2026-04-22 23:59 | 43.11416 | -76.10958 | 418 ft | 3 kts | 345° |
| 2026-04-23 00:00 | 43.11447 | -76.10962 | 416 ft | 0 kts | 357° |